sensor_id;sensor_type;location;lat;lon;timestamp;temperature;humidity
68511;SHT31;55512;50.102;19.958;2024-03-17T00:01:49;10.73;88.70
68511;SHT31;55512;50.102;19.958;2024-03-17T00:04:15;10.72;88.70
68511;SHT31;55512;50.102;19.958;2024-03-17T00:06:41;10.69;88.61
68511;SHT31;55512;50.102;19.958;2024-03-17T00:09:06;10.69;88.60
68511;SHT31;55512;50.102;19.958;2024-03-17T00:11:34;10.68;88.60
68511;SHT31;55512;50.102;19.958;2024-03-17T00:14:01;10.67;88.60
68511;SHT31;55512;50.102;19.958;2024-03-17T00:16:30;10.67;88.61
68511;SHT31;55512;50.102;19.958;2024-03-17T00:21:36;10.62;88.59
68511;SHT31;55512;50.102;19.958;2024-03-17T00:24:49;10.61;88.56
68511;SHT31;55512;50.102;19.958;2024-03-17T00:27:35;10.61;88.59
68511;SHT31;55512;50.102;19.958;2024-03-17T00:30:21;10.60;88.59
68511;SHT31;55512;50.102;19.958;2024-03-17T00:32:47;10.59;88.60
68511;SHT31;55512;50.102;19.958;2024-03-17T00:35:12;10.57;88.47
68511;SHT31;55512;50.102;19.958;2024-03-17T00:37:48;10.51;88.33
68511;SHT31;55512;50.102;19.958;2024-03-17T00:40:19;10.45;88.30
68511;SHT31;55512;50.102;19.958;2024-03-17T00:42:45;10.35;88.05
68511;SHT31;55512;50.102;19.958;2024-03-17T00:45:11;10.20;87.41
68511;SHT31;55512;50.102;19.958;2024-03-17T00:47:37;10.01;86.73
68511;SHT31;55512;50.102;19.958;2024-03-17T00:50:09;9.81;86.83
68511;SHT31;55512;50.102;19.958;2024-03-17T00:52:37;9.62;86.84
68511;SHT31;55512;50.102;19.958;2024-03-17T00:55:04;9.43;86.52
68511;SHT31;55512;50.102;19.958;2024-03-17T00:57:30;9.26;86.62
68511;SHT31;55512;50.102;19.958;2024-03-17T00:59:55;9.09;87.09
68511;SHT31;55512;50.102;19.958;2024-03-17T01:02:21;8.96;87.25
68511;SHT31;55512;50.102;19.958;2024-03-17T01:04:47;8.88;87.30
68511;SHT31;55512;50.102;19.958;2024-03-17T01:07:13;8.77;87.29
68511;SHT31;55512;50.102;19.958;2024-03-17T01:09:38;8.73;87.37
68511;SHT31;55512;50.102;19.958;2024-03-17T01:12:04;8.70;87.50
68511;SHT31;55512;50.102;19.958;2024-03-17T01:14:40;8.68;87.55
68511;SHT31;55512;50.102;19.958;2024-03-17T01:17:05;8.65;87.56
68511;SHT31;55512;50.102;19.958;2024-03-17T01:19:34;8.57;87.30
68511;SHT31;55512;50.102;19.958;2024-03-17T01:22:00;8.44;86.82
68511;SHT31;55512;50.102;19.958;2024-03-17T01:27:36;8.25;86.52
68511;SHT31;55512;50.102;19.958;2024-03-17T01:30:02;8.15;86.00
68511;SHT31;55512;50.102;19.958;2024-03-17T01:32:27;8.04;85.53
68511;SHT31;55512;50.102;19.958;2024-03-17T01:34:53;8.02;85.48
68511;SHT31;55512;50.102;19.958;2024-03-17T01:37:18;8.01;85.79
68511;SHT31;55512;50.102;19.958;2024-03-17T01:39:44;7.94;85.67
68511;SHT31;55512;50.102;19.958;2024-03-17T01:42:09;7.93;85.96
68511;SHT31;55512;50.102;19.958;2024-03-17T01:44:35;7.92;85.91
68511;SHT31;55512;50.102;19.958;2024-03-17T01:47:00;7.92;86.20
68511;SHT31;55512;50.102;19.958;2024-03-17T01:49:26;7.89;86.04
68511;SHT31;55512;50.102;19.958;2024-03-17T01:51:52;7.88;86.18
68511;SHT31;55512;50.102;19.958;2024-03-17T01:54:21;7.86;86.29
68511;SHT31;55512;50.102;19.958;2024-03-17T01:56:47;7.86;86.30
68511;SHT31;55512;50.102;19.958;2024-03-17T01:59:17;7.83;86.20
68511;SHT31;55512;50.102;19.958;2024-03-17T02:01:43;7.80;85.96
68511;SHT31;55512;50.102;19.958;2024-03-17T02:04:16;7.78;85.56
68511;SHT31;55512;50.102;19.958;2024-03-17T02:06:42;7.80;85.85
68511;SHT31;55512;50.102;19.958;2024-03-17T02:09:08;7.70;86.19
68511;SHT31;55512;50.102;19.958;2024-03-17T02:14:30;7.66;86.19
68511;SHT31;55512;50.102;19.958;2024-03-17T02:16:56;7.66;86.17
68511;SHT31;55512;50.102;19.958;2024-03-17T02:19:22;7.65;85.99
68511;SHT31;55512;50.102;19.958;2024-03-17T02:25:51;7.65;86.21
68511;SHT31;55512;50.102;19.958;2024-03-17T02:29:00;7.63;85.97
68511;SHT31;55512;50.102;19.958;2024-03-17T02:31:26;7.62;85.96
68511;SHT31;55512;50.102;19.958;2024-03-17T02:33:54;7.61;85.75
68511;SHT31;55512;50.102;19.958;2024-03-17T02:39:38;7.57;84.72
68511;SHT31;55512;50.102;19.958;2024-03-17T02:42:05;7.55;84.84
68511;SHT31;55512;50.102;19.958;2024-03-17T02:44:33;7.54;84.45
68511;SHT31;55512;50.102;19.958;2024-03-17T02:47:05;7.52;83.81
68511;SHT31;55512;50.102;19.958;2024-03-17T02:49:34;7.58;83.39
68511;SHT31;55512;50.102;19.958;2024-03-17T02:52:04;7.53;83.02
68511;SHT31;55512;50.102;19.958;2024-03-17T02:54:32;7.51;82.81
68511;SHT31;55512;50.102;19.958;2024-03-17T02:57:08;7.51;82.84
68511;SHT31;55512;50.102;19.958;2024-03-17T03:03:18;7.51;82.18
68511;SHT31;55512;50.102;19.958;2024-03-17T03:06:43;7.49;81.90
68511;SHT31;55512;50.102;19.958;2024-03-17T03:09:32;7.48;81.81
68511;SHT31;55512;50.102;19.958;2024-03-17T03:12:03;7.46;81.52
68511;SHT31;55512;50.102;19.958;2024-03-17T03:14:30;7.45;81.45
68511;SHT31;55512;50.102;19.958;2024-03-17T03:16:57;7.44;81.37
68511;SHT31;55512;50.102;19.958;2024-03-17T03:19:23;7.44;81.20
68511;SHT31;55512;50.102;19.958;2024-03-17T03:21:49;7.45;81.06
68511;SHT31;55512;50.102;19.958;2024-03-17T03:24:15;7.44;80.65
68511;SHT31;55512;50.102;19.958;2024-03-17T03:26:42;7.44;80.54
68511;SHT31;55512;50.102;19.958;2024-03-17T03:29:08;7.46;80.48
68511;SHT31;55512;50.102;19.958;2024-03-17T03:31:37;7.45;80.24
68511;SHT31;55512;50.102;19.958;2024-03-17T03:34:04;7.46;80.12
68511;SHT31;55512;50.102;19.958;2024-03-17T03:36:32;7.47;79.97
68511;SHT31;55512;50.102;19.958;2024-03-17T03:39:02;7.47;79.81
68511;SHT31;55512;50.102;19.958;2024-03-17T03:41:31;7.47;79.73
68511;SHT31;55512;50.102;19.958;2024-03-17T03:44:00;7.46;79.70
68511;SHT31;55512;50.102;19.958;2024-03-17T03:46:26;7.46;79.66
68511;SHT31;55512;50.102;19.958;2024-03-17T03:48:52;7.48;79.61
68511;SHT31;55512;50.102;19.958;2024-03-17T03:51:18;7.49;79.60
68511;SHT31;55512;50.102;19.958;2024-03-17T03:53:44;7.50;79.58
68511;SHT31;55512;50.102;19.958;2024-03-17T03:56:10;7.51;79.68
68511;SHT31;55512;50.102;19.958;2024-03-17T04:01:33;7.54;79.59
68511;SHT31;55512;50.102;19.958;2024-03-17T04:04:05;7.55;79.70
68511;SHT31;55512;50.102;19.958;2024-03-17T04:07:03;7.57;79.66
68511;SHT31;55512;50.102;19.958;2024-03-17T04:12:48;7.57;79.46
68511;SHT31;55512;50.102;19.958;2024-03-17T04:15:44;7.53;79.30
68511;SHT31;55512;50.102;19.958;2024-03-17T04:21:35;7.53;79.32
68511;SHT31;55512;50.102;19.958;2024-03-17T04:24:01;7.48;79.09
68511;SHT31;55512;50.102;19.958;2024-03-17T04:26:29;7.45;79.05
68511;SHT31;55512;50.102;19.958;2024-03-17T04:29:01;7.46;79.04
68511;SHT31;55512;50.102;19.958;2024-03-17T04:31:26;7.41;78.82
68511;SHT31;55512;50.102;19.958;2024-03-17T04:34:12;7.38;78.81
68511;SHT31;55512;50.102;19.958;2024-03-17T04:36:38;7.33;78.30
68511;SHT31;55512;50.102;19.958;2024-03-17T04:39:14;7.27;77.89
68511;SHT31;55512;50.102;19.958;2024-03-17T04:41:52;7.20;77.24
68511;SHT31;55512;50.102;19.958;2024-03-17T04:44:18;7.12;76.29
68511;SHT31;55512;50.102;19.958;2024-03-17T04:47:22;7.03;75.81
68511;SHT31;55512;50.102;19.958;2024-03-17T04:50:32;6.96;76.13
68511;SHT31;55512;50.102;19.958;2024-03-17T04:53:32;6.87;76.28
68511;SHT31;55512;50.102;19.958;2024-03-17T04:56:05;6.82;76.44
68511;SHT31;55512;50.102;19.958;2024-03-17T04:58:32;6.76;76.63
68511;SHT31;55512;50.102;19.958;2024-03-17T05:01:04;6.69;76.69
68511;SHT31;55512;50.102;19.958;2024-03-17T05:03:34;6.62;76.80
68511;SHT31;55512;50.102;19.958;2024-03-17T05:06:01;6.57;76.91
68511;SHT31;55512;50.102;19.958;2024-03-17T05:08:29;6.50;76.76
68511;SHT31;55512;50.102;19.958;2024-03-17T05:11:00;6.44;76.65
68511;SHT31;55512;50.102;19.958;2024-03-17T05:13:31;6.37;76.43
68511;SHT31;55512;50.102;19.958;2024-03-17T05:15:58;6.32;76.34
68511;SHT31;55512;50.102;19.958;2024-03-17T05:18:43;6.26;76.45
68511;SHT31;55512;50.102;19.958;2024-03-17T05:21:21;6.20;76.50
68511;SHT31;55512;50.102;19.958;2024-03-17T05:24:01;6.14;76.49
68511;SHT31;55512;50.102;19.958;2024-03-17T05:26:27;6.10;76.45
68511;SHT31;55512;50.102;19.958;2024-03-17T05:29:01;6.06;76.03
68511;SHT31;55512;50.102;19.958;2024-03-17T05:31:33;6.03;76.20
68511;SHT31;55512;50.102;19.958;2024-03-17T05:34:23;5.99;75.89
68511;SHT31;55512;50.102;19.958;2024-03-17T05:37:12;5.96;75.29
68511;SHT31;55512;50.102;19.958;2024-03-17T05:39:50;5.95;75.09
68511;SHT31;55512;50.102;19.958;2024-03-17T05:42:19;5.96;74.76
68511;SHT31;55512;50.102;19.958;2024-03-17T05:44:48;5.95;74.59
68511;SHT31;55512;50.102;19.958;2024-03-17T05:47:18;5.97;74.34
68511;SHT31;55512;50.102;19.958;2024-03-17T05:49:44;5.97;74.55
68511;SHT31;55512;50.102;19.958;2024-03-17T05:52:10;5.97;74.59
68511;SHT31;55512;50.102;19.958;2024-03-17T05:54:45;5.98;73.85
68511;SHT31;55512;50.102;19.958;2024-03-17T05:57:11;5.99;73.52
68511;SHT31;55512;50.102;19.958;2024-03-17T05:59:38;6.00;73.09
68511;SHT31;55512;50.102;19.958;2024-03-17T06:02:19;5.99;73.09
68511;SHT31;55512;50.102;19.958;2024-03-17T06:04:48;5.85;73.05
68511;SHT31;55512;50.102;19.958;2024-03-17T06:07:14;5.82;72.12
68511;SHT31;55512;50.102;19.958;2024-03-17T06:09:39;5.82;72.40
68511;SHT31;55512;50.102;19.958;2024-03-17T06:12:12;5.84;72.21
68511;SHT31;55512;50.102;19.958;2024-03-17T06:14:38;5.82;71.84
68511;SHT31;55512;50.102;19.958;2024-03-17T06:17:04;5.83;72.21
68511;SHT31;55512;50.102;19.958;2024-03-17T06:19:35;5.84;71.60
68511;SHT31;55512;50.102;19.958;2024-03-17T06:22:12;5.86;71.01
68511;SHT31;55512;50.102;19.958;2024-03-17T06:24:41;5.87;71.15
68511;SHT31;55512;50.102;19.958;2024-03-17T06:27:07;5.89;70.98
68511;SHT31;55512;50.102;19.958;2024-03-17T06:29:54;5.91;69.92
68511;SHT31;55512;50.102;19.958;2024-03-17T06:32:23;5.92;68.97
68511;SHT31;55512;50.102;19.958;2024-03-17T06:34:49;5.91;68.59
68511;SHT31;55512;50.102;19.958;2024-03-17T06:37:14;5.91;68.32
68511;SHT31;55512;50.102;19.958;2024-03-17T06:39:40;5.94;68.93
68511;SHT31;55512;50.102;19.958;2024-03-17T06:42:11;5.95;69.47
68511;SHT31;55512;50.102;19.958;2024-03-17T06:44:40;5.94;68.42
68511;SHT31;55512;50.102;19.958;2024-03-17T06:47:30;5.87;67.97
68511;SHT31;55512;50.102;19.958;2024-03-17T06:50:25;5.98;67.52
68511;SHT31;55512;50.102;19.958;2024-03-17T06:53:09;6.00;67.71
68511;SHT31;55512;50.102;19.958;2024-03-17T06:58:58;6.11;67.94
68511;SHT31;55512;50.102;19.958;2024-03-17T07:02:10;6.17;67.59
68511;SHT31;55512;50.102;19.958;2024-03-17T07:08:39;6.32;67.98
68511;SHT31;55512;50.102;19.958;2024-03-17T07:11:20;6.35;67.51
68511;SHT31;55512;50.102;19.958;2024-03-17T07:13:59;6.33;68.05
68511;SHT31;55512;50.102;19.958;2024-03-17T07:17:11;6.32;67.62
68511;SHT31;55512;50.102;19.958;2024-03-17T07:19:40;6.36;67.33
68511;SHT31;55512;50.102;19.958;2024-03-17T07:22:14;6.39;67.57
68511;SHT31;55512;50.102;19.958;2024-03-17T07:24:53;6.44;67.66
68511;SHT31;55512;50.102;19.958;2024-03-17T07:27:29;6.51;68.00
68511;SHT31;55512;50.102;19.958;2024-03-17T07:30:27;6.56;67.20
68511;SHT31;55512;50.102;19.958;2024-03-17T07:33:19;6.61;66.88
68511;SHT31;55512;50.102;19.958;2024-03-17T07:35:49;6.72;66.19
68511;SHT31;55512;50.102;19.958;2024-03-17T07:38:16;6.73;66.40
68511;SHT31;55512;50.102;19.958;2024-03-17T07:40:45;6.79;65.48
68511;SHT31;55512;50.102;19.958;2024-03-17T07:43:22;6.80;64.62
68511;SHT31;55512;50.102;19.958;2024-03-17T07:45:56;6.80;63.65
68511;SHT31;55512;50.102;19.958;2024-03-17T07:48:30;6.80;63.00
68511;SHT31;55512;50.102;19.958;2024-03-17T07:53:46;6.97;62.34
68511;SHT31;55512;50.102;19.958;2024-03-17T07:56:17;7.05;62.32
68511;SHT31;55512;50.102;19.958;2024-03-17T07:58:44;7.24;61.86
68511;SHT31;55512;50.102;19.958;2024-03-17T08:01:14;7.32;60.85
68511;SHT31;55512;50.102;19.958;2024-03-17T08:03:43;7.25;60.48
68511;SHT31;55512;50.102;19.958;2024-03-17T08:06:17;7.27;61.28
68511;SHT31;55512;50.102;19.958;2024-03-17T08:08:51;7.39;60.45
68511;SHT31;55512;50.102;19.958;2024-03-17T08:11:16;7.41;59.69
68511;SHT31;55512;50.102;19.958;2024-03-17T08:13:52;7.40;58.08
68511;SHT31;55512;50.102;19.958;2024-03-17T08:16:19;7.40;57.79
68511;SHT31;55512;50.102;19.958;2024-03-17T08:18:45;7.34;57.30
68511;SHT31;55512;50.102;19.958;2024-03-17T08:21:10;7.37;57.22
68511;SHT31;55512;50.102;19.958;2024-03-17T08:23:36;7.37;57.68
68511;SHT31;55512;50.102;19.958;2024-03-17T08:26:10;7.32;56.40
68511;SHT31;55512;50.102;19.958;2024-03-17T08:28:39;7.34;56.22
68511;SHT31;55512;50.102;19.958;2024-03-17T08:31:04;7.41;56.76
68511;SHT31;55512;50.102;19.958;2024-03-17T08:33:30;7.39;57.11
68511;SHT31;55512;50.102;19.958;2024-03-17T08:36:24;7.34;57.74
68511;SHT31;55512;50.102;19.958;2024-03-17T08:38:53;7.51;58.03
68511;SHT31;55512;50.102;19.958;2024-03-17T08:42:05;7.53;56.67
68511;SHT31;55512;50.102;19.958;2024-03-17T08:44:38;7.70;56.65
68511;SHT31;55512;50.102;19.958;2024-03-17T08:47:42;7.74;56.79
68511;SHT31;55512;50.102;19.958;2024-03-17T08:50:08;7.89;56.11
68511;SHT31;55512;50.102;19.958;2024-03-17T08:52:37;8.06;56.07
68511;SHT31;55512;50.102;19.958;2024-03-17T08:55:16;8.20;56.34
68511;SHT31;55512;50.102;19.958;2024-03-17T08:57:44;8.21;54.91
68511;SHT31;55512;50.102;19.958;2024-03-17T09:00:24;8.22;54.94
68511;SHT31;55512;50.102;19.958;2024-03-17T09:02:50;8.23;54.64
68511;SHT31;55512;50.102;19.958;2024-03-17T09:05:16;8.29;54.87
68511;SHT31;55512;50.102;19.958;2024-03-17T09:07:44;8.37;53.89
68511;SHT31;55512;50.102;19.958;2024-03-17T09:10:10;8.40;53.76
68511;SHT31;55512;50.102;19.958;2024-03-17T09:13:02;8.48;54.29
68511;SHT31;55512;50.102;19.958;2024-03-17T09:15:51;8.44;52.44
68511;SHT31;55512;50.102;19.958;2024-03-17T09:18:26;8.39;52.95
68511;SHT31;55512;50.102;19.958;2024-03-17T09:21:03;8.38;52.82
68511;SHT31;55512;50.102;19.958;2024-03-17T09:23:33;8.44;53.45
68511;SHT31;55512;50.102;19.958;2024-03-17T09:26:07;8.51;53.16
68511;SHT31;55512;50.102;19.958;2024-03-17T09:28:35;8.57;52.49
68511;SHT31;55512;50.102;19.958;2024-03-17T09:31:02;8.59;53.48
68511;SHT31;55512;50.102;19.958;2024-03-17T09:33:30;8.65;53.44
68511;SHT31;55512;50.102;19.958;2024-03-17T09:36:19;8.70;53.35
68511;SHT31;55512;50.102;19.958;2024-03-17T09:38:45;8.76;52.75
68511;SHT31;55512;50.102;19.958;2024-03-17T09:41:23;8.82;52.65
68511;SHT31;55512;50.102;19.958;2024-03-17T09:43:58;8.88;52.84
68511;SHT31;55512;50.102;19.958;2024-03-17T09:46:24;8.94;52.75
68511;SHT31;55512;50.102;19.958;2024-03-17T09:48:53;8.99;52.72
68511;SHT31;55512;50.102;19.958;2024-03-17T09:51:21;9.07;52.88
68511;SHT31;55512;50.102;19.958;2024-03-17T09:53:50;9.13;52.18
68511;SHT31;55512;50.102;19.958;2024-03-17T09:56:19;9.08;51.89
68511;SHT31;55512;50.102;19.958;2024-03-17T09:58:50;9.03;51.43
68511;SHT31;55512;50.102;19.958;2024-03-17T10:01:17;8.96;51.77
68511;SHT31;55512;50.102;19.958;2024-03-17T10:03:50;8.93;51.36
68511;SHT31;55512;50.102;19.958;2024-03-17T10:06:19;8.85;50.93
68511;SHT31;55512;50.102;19.958;2024-03-17T10:08:54;8.86;51.44
68511;SHT31;55512;50.102;19.958;2024-03-17T10:11:22;8.92;51.72
68511;SHT31;55512;50.102;19.958;2024-03-17T10:14:00;9.01;51.65
68511;SHT31;55512;50.102;19.958;2024-03-17T10:16:33;9.15;52.24
68511;SHT31;55512;50.102;19.958;2024-03-17T10:19:06;9.30;51.16
68511;SHT31;55512;50.102;19.958;2024-03-17T10:21:35;9.36;50.68
68511;SHT31;55512;50.102;19.958;2024-03-17T10:24:10;9.43;50.32
68511;SHT31;55512;50.102;19.958;2024-03-17T10:32:03;9.84;49.98
68511;SHT31;55512;50.102;19.958;2024-03-17T10:34:43;9.77;47.60
68511;SHT31;55512;50.102;19.958;2024-03-17T10:37:11;9.65;47.80
68511;SHT31;55512;50.102;19.958;2024-03-17T10:39:53;9.64;48.38
68511;SHT31;55512;50.102;19.958;2024-03-17T10:42:24;9.62;47.02
68511;SHT31;55512;50.102;19.958;2024-03-17T10:44:57;9.61;47.94
68511;SHT31;55512;50.102;19.958;2024-03-17T10:47:24;9.57;46.58
68511;SHT31;55512;50.102;19.958;2024-03-17T10:49:52;9.49;46.63
68511;SHT31;55512;50.102;19.958;2024-03-17T10:52:20;9.38;46.60
68511;SHT31;55512;50.102;19.958;2024-03-17T10:54:54;9.30;46.85
68511;SHT31;55512;50.102;19.958;2024-03-17T11:03:42;9.11;46.66
68511;SHT31;55512;50.102;19.958;2024-03-17T11:06:58;9.08;48.00
68511;SHT31;55512;50.102;19.958;2024-03-17T11:13:22;9.05;46.98
68511;SHT31;55512;50.102;19.958;2024-03-17T11:15:55;9.04;46.02
68511;SHT31;55512;50.102;19.958;2024-03-17T11:21:18;9.16;45.72
68511;SHT31;55512;50.102;19.958;2024-03-17T11:30:48;9.31;44.72
68511;SHT31;55512;50.102;19.958;2024-03-17T11:39:45;9.53;44.01
68511;SHT31;55512;50.102;19.958;2024-03-17T11:42:21;9.74;44.00
68511;SHT31;55512;50.102;19.958;2024-03-17T11:47:40;10.16;44.36
68511;SHT31;55512;50.102;19.958;2024-03-17T11:50:08;10.35;43.57
68511;SHT31;55512;50.102;19.958;2024-03-17T11:52:36;10.45;43.34
68511;SHT31;55512;50.102;19.958;2024-03-17T11:57:56;10.62;43.14
68511;SHT31;55512;50.102;19.958;2024-03-17T12:00:22;10.63;42.47
68511;SHT31;55512;50.102;19.958;2024-03-17T12:02:49;10.69;42.38
68511;SHT31;55512;50.102;19.958;2024-03-17T12:05:16;10.85;42.88
68511;SHT31;55512;50.102;19.958;2024-03-17T12:07:42;11.00;42.36
68511;SHT31;55512;50.102;19.958;2024-03-17T12:13:37;11.23;42.52
68511;SHT31;55512;50.102;19.958;2024-03-17T12:16:52;11.39;42.48
68511;SHT31;55512;50.102;19.958;2024-03-17T12:20:17;11.36;40.65
68511;SHT31;55512;50.102;19.958;2024-03-17T12:23:14;11.26;40.55
68511;SHT31;55512;50.102;19.958;2024-03-17T12:26:13;11.41;41.47
68511;SHT31;55512;50.102;19.958;2024-03-17T12:29:00;11.62;41.66
68511;SHT31;55512;50.102;19.958;2024-03-17T12:31:32;11.77;40.32
68511;SHT31;55512;50.102;19.958;2024-03-17T12:34:21;11.72;40.13
68511;SHT31;55512;50.102;19.958;2024-03-17T12:36:52;11.71;40.99
68511;SHT31;55512;50.102;19.958;2024-03-17T12:45:22;11.89;40.26
68511;SHT31;55512;50.102;19.958;2024-03-17T12:48:10;11.78;41.06
68511;SHT31;55512;50.102;19.958;2024-03-17T12:50:54;11.64;40.19
68511;SHT31;55512;50.102;19.958;2024-03-17T12:53:23;11.47;40.24
68511;SHT31;55512;50.102;19.958;2024-03-17T12:55:58;11.33;40.10
68511;SHT31;55512;50.102;19.958;2024-03-17T12:58:51;11.13;40.21
68511;SHT31;55512;50.102;19.958;2024-03-17T13:01:35;10.97;40.16
68511;SHT31;55512;50.102;19.958;2024-03-17T13:04:07;10.95;40.03
68511;SHT31;55512;50.102;19.958;2024-03-17T13:06:40;11.10;40.64
68511;SHT31;55512;50.102;19.958;2024-03-17T13:09:08;11.28;40.05
68511;SHT31;55512;50.102;19.958;2024-03-17T13:11:42;11.34;39.80
68511;SHT31;55512;50.102;19.958;2024-03-17T13:14:07;11.34;39.39
68511;SHT31;55512;50.102;19.958;2024-03-17T13:16:40;11.33;39.26
68511;SHT31;55512;50.102;19.958;2024-03-17T13:19:08;11.35;39.34
68511;SHT31;55512;50.102;19.958;2024-03-17T13:21:34;11.27;39.06
68511;SHT31;55512;50.102;19.958;2024-03-17T13:24:00;11.24;39.50
68511;SHT31;55512;50.102;19.958;2024-03-17T13:26:26;11.38;38.93
68511;SHT31;55512;50.102;19.958;2024-03-17T13:28:51;11.56;38.94
68511;SHT31;55512;50.102;19.958;2024-03-17T13:31:17;11.81;39.59
68511;SHT31;55512;50.102;19.958;2024-03-17T13:33:42;12.05;38.05
68511;SHT31;55512;50.102;19.958;2024-03-17T13:36:31;12.20;37.19
68511;SHT31;55512;50.102;19.958;2024-03-17T13:39:07;12.43;38.16
68511;SHT31;55512;50.102;19.958;2024-03-17T13:41:48;12.61;37.18
68511;SHT31;55512;50.102;19.958;2024-03-17T13:44:45;12.70;36.90
68511;SHT31;55512;50.102;19.958;2024-03-17T13:47:11;12.78;36.09
68511;SHT31;55512;50.102;19.958;2024-03-17T13:49:40;12.79;36.50
68511;SHT31;55512;50.102;19.958;2024-03-17T13:52:05;12.72;35.61
68511;SHT31;55512;50.102;19.958;2024-03-17T13:54:31;12.65;35.98
68511;SHT31;55512;50.102;19.958;2024-03-17T13:56:57;12.63;36.71
68511;SHT31;55512;50.102;19.958;2024-03-17T13:59:23;12.68;37.31
68511;SHT31;55512;50.102;19.958;2024-03-17T14:01:52;12.74;37.02
68511;SHT31;55512;50.102;19.958;2024-03-17T14:04:18;12.76;36.72
68511;SHT31;55512;50.102;19.958;2024-03-17T14:06:47;12.75;36.82
68511;SHT31;55512;50.102;19.958;2024-03-17T14:09:16;12.74;36.47
68511;SHT31;55512;50.102;19.958;2024-03-17T14:11:49;12.73;36.47
68511;SHT31;55512;50.102;19.958;2024-03-17T14:14:15;12.74;36.11
68511;SHT31;55512;50.102;19.958;2024-03-17T14:16:44;12.53;35.77
68511;SHT31;55512;50.102;19.958;2024-03-17T14:19:10;12.37;36.36
68511;SHT31;55512;50.102;19.958;2024-03-17T14:21:35;12.12;36.24
68511;SHT31;55512;50.102;19.958;2024-03-17T14:24:03;11.95;36.94
68511;SHT31;55512;50.102;19.958;2024-03-17T14:26:32;11.80;37.31
68511;SHT31;55512;50.102;19.958;2024-03-17T14:29:01;11.74;36.83
68511;SHT31;55512;50.102;19.958;2024-03-17T14:31:30;11.79;36.96
68511;SHT31;55512;50.102;19.958;2024-03-17T14:34:05;11.92;37.18
68511;SHT31;55512;50.102;19.958;2024-03-17T14:36:39;12.10;36.88
68511;SHT31;55512;50.102;19.958;2024-03-17T14:39:05;12.24;37.22
68511;SHT31;55512;50.102;19.958;2024-03-17T14:41:33;12.48;37.56
68511;SHT31;55512;50.102;19.958;2024-03-17T14:43:59;12.71;36.00
68511;SHT31;55512;50.102;19.958;2024-03-17T14:46:25;12.87;35.84
68511;SHT31;55512;50.102;19.958;2024-03-17T14:48:52;12.98;34.81
68511;SHT31;55512;50.102;19.958;2024-03-17T14:51:19;13.02;34.46
68511;SHT31;55512;50.102;19.958;2024-03-17T14:54:03;12.92;34.07
68511;SHT31;55512;50.102;19.958;2024-03-17T14:56:31;12.88;35.39
68511;SHT31;55512;50.102;19.958;2024-03-17T14:59:09;12.87;34.08
68511;SHT31;55512;50.102;19.958;2024-03-17T15:01:38;12.67;34.31
68511;SHT31;55512;50.102;19.958;2024-03-17T15:04:17;12.65;35.23
68511;SHT31;55512;50.102;19.958;2024-03-17T15:06:43;12.70;35.81
68511;SHT31;55512;50.102;19.958;2024-03-17T15:09:40;12.80;36.28
68511;SHT31;55512;50.102;19.958;2024-03-17T15:13:11;12.60;36.32
68511;SHT31;55512;50.102;19.958;2024-03-17T15:15:57;12.40;37.48
68511;SHT31;55512;50.102;19.958;2024-03-17T15:18:22;12.34;38.18
68511;SHT31;55512;50.102;19.958;2024-03-17T15:20:54;12.23;37.58
68511;SHT31;55512;50.102;19.958;2024-03-17T15:23:42;12.13;38.06
68511;SHT31;55512;50.102;19.958;2024-03-17T15:26:16;12.12;37.90
68511;SHT31;55512;50.102;19.958;2024-03-17T15:28:45;12.23;38.03
68511;SHT31;55512;50.102;19.958;2024-03-17T15:31:11;12.40;38.20
68511;SHT31;55512;50.102;19.958;2024-03-17T15:33:37;12.55;38.75
68511;SHT31;55512;50.102;19.958;2024-03-17T15:36:15;12.59;39.84
68511;SHT31;55512;50.102;19.958;2024-03-17T15:38:51;12.19;40.94
68511;SHT31;55512;50.102;19.958;2024-03-17T15:41:16;11.87;41.91
68511;SHT31;55512;50.102;19.958;2024-03-17T15:43:45;11.26;43.09
68511;SHT31;55512;50.102;19.958;2024-03-17T15:46:14;11.00;43.52
68511;SHT31;55512;50.102;19.958;2024-03-17T15:48:43;11.57;42.77
68511;SHT31;55512;50.102;19.958;2024-03-17T15:51:09;11.25;43.53
68511;SHT31;55512;50.102;19.958;2024-03-17T15:53:35;10.67;44.52
68511;SHT31;55512;50.102;19.958;2024-03-17T15:56:01;10.23;45.26
68511;SHT31;55512;50.102;19.958;2024-03-17T15:58:31;9.85;46.14
68511;SHT31;55512;50.102;19.958;2024-03-17T16:00:57;9.58;46.68
68511;SHT31;55512;50.102;19.958;2024-03-17T16:03:29;9.46;46.95
68511;SHT31;55512;50.102;19.958;2024-03-17T16:06:04;9.29;47.21
68511;SHT31;55512;50.102;19.958;2024-03-17T16:08:40;9.10;47.55
68511;SHT31;55512;50.102;19.958;2024-03-17T16:11:13;8.95;47.99
68511;SHT31;55512;50.102;19.958;2024-03-17T16:14:09;8.84;48.52
68511;SHT31;55512;50.102;19.958;2024-03-17T16:16:35;8.92;48.37
68511;SHT31;55512;50.102;19.958;2024-03-17T16:19:03;8.83;48.37
68511;SHT31;55512;50.102;19.958;2024-03-17T16:21:32;8.70;48.80
68511;SHT31;55512;50.102;19.958;2024-03-17T16:23:59;8.63;49.07
68511;SHT31;55512;50.102;19.958;2024-03-17T16:26:42;8.56;49.37
68511;SHT31;55512;50.102;19.958;2024-03-17T16:29:09;8.51;49.64
68511;SHT31;55512;50.102;19.958;2024-03-17T16:31:35;8.39;49.79
68511;SHT31;55512;50.102;19.958;2024-03-17T16:34:03;8.25;49.96
68511;SHT31;55512;50.102;19.958;2024-03-17T16:36:30;8.14;50.19
68511;SHT31;55512;50.102;19.958;2024-03-17T16:38:57;8.05;50.34
68511;SHT31;55512;50.102;19.958;2024-03-17T16:41:25;7.95;50.55
68511;SHT31;55512;50.102;19.958;2024-03-17T16:43:58;7.83;50.46
68511;SHT31;55512;50.102;19.958;2024-03-17T16:49:40;7.55;51.19
68511;SHT31;55512;50.102;19.958;2024-03-17T16:52:06;7.45;50.90
68511;SHT31;55512;50.102;19.958;2024-03-17T16:54:34;7.36;50.99
68511;SHT31;55512;50.102;19.958;2024-03-17T16:57:04;7.30;51.10
68511;SHT31;55512;50.102;19.958;2024-03-17T16:59:34;7.23;50.98
68511;SHT31;55512;50.102;19.958;2024-03-17T17:01:59;7.17;51.19
68511;SHT31;55512;50.102;19.958;2024-03-17T17:04:32;7.11;51.17
68511;SHT31;55512;50.102;19.958;2024-03-17T17:07:11;7.03;51.43
68511;SHT31;55512;50.102;19.958;2024-03-17T17:09:41;6.96;51.45
68511;SHT31;55512;50.102;19.958;2024-03-17T17:12:21;6.90;51.38
68511;SHT31;55512;50.102;19.958;2024-03-17T17:14:47;6.86;51.47
68511;SHT31;55512;50.102;19.958;2024-03-17T17:17:12;6.83;51.31
68511;SHT31;55512;50.102;19.958;2024-03-17T17:19:38;6.80;51.32
68511;SHT31;55512;50.102;19.958;2024-03-17T17:22:11;6.79;51.29
68511;SHT31;55512;50.102;19.958;2024-03-17T17:24:41;6.78;51.27
68511;SHT31;55512;50.102;19.958;2024-03-17T17:27:09;6.76;51.42
68511;SHT31;55512;50.102;19.958;2024-03-17T17:29:37;6.76;51.33
68511;SHT31;55512;50.102;19.958;2024-03-17T17:32:14;6.76;51.30